createdAt,value
2023-04-03T00:01:08.339Z,995.8
2023-04-03T00:03:34.522Z,995.9
2023-04-03T00:06:00.637Z,995.9
2023-04-03T00:08:25.764Z,995.9
2023-04-03T00:10:51.794Z,995.9
2023-04-03T00:13:17.961Z,995.9
2023-04-03T00:15:43.997Z,996
2023-04-03T00:18:10.130Z,995.9
2023-04-03T00:20:36.035Z,996
2023-04-03T00:23:01.327Z,995.9
2023-04-03T00:25:27.474Z,996
2023-04-03T00:27:53.555Z,996
2023-04-03T00:30:19.694Z,995.9
2023-04-03T00:32:45.723Z,995.9
2023-04-03T00:35:11.819Z,995.9
2023-04-03T00:37:37.916Z,995.9
2023-04-03T00:40:03.902Z,995.9
2023-04-03T00:42:30.084Z,995.8
2023-04-03T00:44:56.167Z,995.9
2023-04-03T00:47:22.283Z,995.9
2023-04-03T00:49:48.399Z,995.9
2023-04-03T00:52:16.939Z,995.9
2023-04-03T00:54:39.557Z,996
2023-04-03T00:57:05.540Z,996
2023-04-03T00:59:31.768Z,995.9
2023-04-03T01:01:57.848Z,995.9
2023-04-03T01:04:23.801Z,996
2023-04-03T01:06:50.032Z,995.9
2023-04-03T01:09:16.099Z,995.9
2023-04-03T01:11:42.197Z,995.9
2023-04-03T01:14:08.262Z,995.9
2023-04-03T01:16:34.514Z,995.8
2023-04-03T01:19:00.540Z,995.9
2023-04-03T01:21:26.587Z,995.9
2023-04-03T01:23:52.819Z,995.9
2023-04-03T01:26:17.758Z,995.9
2023-04-03T01:28:43.944Z,995.9
2023-04-03T01:31:09.948Z,995.9
2023-04-03T01:33:35.973Z,996
2023-04-03T01:36:02.253Z,996
2023-04-03T01:38:28.150Z,995.9
2023-04-03T01:40:54.345Z,995.9
2023-04-03T01:43:20.368Z,996
2023-04-03T01:45:46.457Z,995.9
2023-04-03T01:48:12.546Z,996
2023-04-03T01:50:38.823Z,995.9
2023-04-03T01:53:04.793Z,996
2023-04-03T01:55:30.931Z,996
2023-04-03T01:57:56.032Z,996
2023-04-03T02:00:22.074Z,995.9
2023-04-03T02:02:48.225Z,996.1
2023-04-03T02:05:14.329Z,996.1
2023-04-03T02:07:40.528Z,996.1
2023-04-03T02:10:06.531Z,996.1
2023-04-03T02:12:32.668Z,996.1
2023-04-03T02:14:58.859Z,996.1
2023-04-03T02:17:24.790Z,996.1
2023-04-03T02:19:50.991Z,996.1
2023-04-03T02:22:17.011Z,996.1
2023-04-03T02:24:43.196Z,996.1
2023-04-03T02:27:09.255Z,996.1
2023-04-03T02:29:34.318Z,996.1
2023-04-03T02:32:00.419Z,996.1
2023-04-03T02:34:26.399Z,996.1
2023-04-03T02:36:52.653Z,996.1
2023-04-03T02:39:18.616Z,996.1
2023-04-03T02:41:44.692Z,996.1
2023-04-03T02:44:10.898Z,996.2
2023-04-03T02:46:36.992Z,996.1
2023-04-03T02:49:03.129Z,996.2
2023-04-03T02:51:29.133Z,996.2
2023-04-03T02:53:55.303Z,996.2
2023-04-03T02:56:21.409Z,996.2
2023-04-03T02:58:47.545Z,996.3
2023-04-03T03:01:12.479Z,996.2
2023-04-03T03:03:38.698Z,996.2
2023-04-03T03:06:04.745Z,996.3
2023-04-03T03:08:30.871Z,996.3
2023-04-03T03:10:57.041Z,996.2
2023-04-03T03:13:23.136Z,996.2
2023-04-03T03:15:49.238Z,996.2
2023-04-03T03:18:15.205Z,996.2
2023-04-03T03:20:41.372Z,996.2
2023-04-03T03:23:07.479Z,996.2
2023-04-03T03:25:33.574Z,996.2
2023-04-03T03:27:59.557Z,996.2
2023-04-03T03:30:25.771Z,996.2
2023-04-03T03:32:51.853Z,996.2
2023-04-03T03:35:17.961Z,996.1
2023-04-03T03:37:44.083Z,996.2
2023-04-03T03:40:10.117Z,996.1
2023-04-03T03:42:35.154Z,996
2023-04-03T03:45:01.359Z,996.1
2023-04-03T03:47:27.363Z,996.1
2023-04-03T03:49:53.499Z,996.1
2023-04-03T03:52:19.663Z,996.1
2023-04-03T03:54:46.034Z,996.1
2023-04-03T03:57:11.807Z,996.2
2023-04-03T03:59:37.851Z,996.1
2023-04-03T04:02:04.062Z,996.1
2023-04-03T04:04:30.138Z,996.1
2023-04-03T04:06:56.126Z,996.2
2023-04-03T04:09:22.163Z,996.1
2023-04-03T04:11:48.271Z,996.1
2023-04-03T04:14:13.449Z,996.1
2023-04-03T04:16:39.502Z,996.1
2023-04-03T04:19:05.744Z,996.1
2023-04-03T04:21:31.809Z,996.1
2023-04-03T04:23:57.932Z,996.1
2023-04-03T04:26:23.973Z,996.1
2023-04-03T04:28:50.061Z,996.1
2023-04-03T04:31:16.121Z,996
2023-04-03T04:33:42.294Z,996.1
2023-04-03T04:36:08.290Z,996.1
2023-04-03T04:38:34.433Z,996.1
2023-04-03T04:41:00.628Z,996.1
2023-04-03T04:43:26.565Z,996.1
2023-04-03T04:45:51.634Z,996.1
2023-04-03T04:48:17.863Z,996.1
2023-04-03T04:50:43.819Z,996.2
2023-04-03T04:53:09.939Z,996.1
2023-04-03T04:55:36.014Z,996.2
2023-04-03T04:58:02.281Z,996.2
2023-04-03T05:00:28.207Z,996.2
2023-04-03T05:02:54.332Z,996.3
2023-04-03T05:05:20.398Z,996.2
2023-04-03T05:07:46.498Z,996.2
2023-04-03T05:10:12.621Z,996.3
2023-04-03T05:12:38.830Z,996.3
2023-04-03T05:15:04.845Z,996.3
2023-04-03T05:17:29.912Z,996.3
2023-04-03T05:19:56.100Z,996.4
2023-04-03T05:22:22.079Z,996.4
2023-04-03T05:24:48.193Z,996.4
2023-04-03T05:27:14.445Z,996.5
2023-04-03T05:29:40.454Z,996.5
2023-04-03T05:32:06.584Z,996.5
2023-04-03T05:34:32.583Z,996.5
2023-04-03T05:36:58.785Z,996.5
2023-04-03T05:39:24.904Z,996.5
2023-04-03T05:41:50.965Z,996.6
2023-04-03T05:44:17.030Z,996.6
2023-04-03T05:46:43.049Z,996.6
2023-04-03T05:49:09.126Z,996.6
2023-04-03T05:51:35.328Z,996.6
2023-04-03T05:54:01.374Z,996.5
2023-04-03T05:56:26.571Z,996.5
2023-04-03T05:58:52.666Z,996.6
2023-04-03T06:03:44.879Z,996.6
2023-04-03T06:06:10.813Z,996.7
2023-04-03T06:08:37.028Z,996.7
2023-04-03T06:11:03.025Z,996.7
2023-04-03T06:13:29.221Z,996.7
2023-04-03T06:15:55.200Z,996.8
2023-04-03T06:18:21.388Z,996.7
2023-04-03T06:20:47.556Z,996.8
2023-04-03T06:23:13.478Z,996.8
2023-04-03T06:25:39.708Z,996.8
2023-04-03T06:30:31.922Z,996.8
2023-04-03T06:32:57.911Z,996.9
2023-04-03T06:35:24.100Z,996.8
2023-04-03T06:37:50.299Z,996.8
2023-04-03T06:40:16.306Z,996.8
2023-04-03T06:42:42.378Z,996.9
2023-04-03T06:45:08.513Z,996.9
2023-04-03T06:47:34.591Z,996.9
2023-04-03T06:50:00.593Z,996.9
2023-04-03T06:52:26.639Z,997
2023-04-03T06:54:52.864Z,997
2023-04-03T06:57:18.953Z,997
2023-04-03T06:59:45.108Z,997
2023-04-03T07:02:10.163Z,997
2023-04-03T07:04:36.223Z,997
2023-04-03T07:07:02.415Z,997.1
2023-04-03T07:09:28.331Z,997.1
2023-04-03T07:11:54.641Z,997
2023-04-03T07:14:20.658Z,997
2023-04-03T07:16:46.600Z,997.1
2023-04-03T07:19:12.940Z,997.1
2023-04-03T07:21:38.921Z,997.1
2023-04-03T07:24:04.888Z,997.2
2023-04-03T07:26:31.159Z,997.2
2023-04-03T07:28:57.107Z,997.1
2023-04-03T07:31:23.410Z,997.2
2023-04-03T07:33:48.450Z,997.2
2023-04-03T07:36:14.493Z,997.2
2023-04-03T07:38:40.506Z,997.2
2023-04-03T07:41:06.752Z,997.2
2023-04-03T07:43:32.914Z,997.2
2023-04-03T07:45:58.996Z,997.3
2023-04-03T07:48:24.880Z,997.3
2023-04-03T07:50:51.154Z,997.4
2023-04-03T07:53:17.228Z,997.3
2023-04-03T07:55:43.167Z,997.3
2023-04-03T07:58:09.432Z,997.4
2023-04-03T08:00:35.570Z,997.4
2023-04-03T08:03:01.598Z,997.4
2023-04-03T08:05:26.701Z,997.4
2023-04-03T08:07:52.801Z,997.4
2023-04-03T08:10:18.954Z,997.3
2023-04-03T08:12:45.017Z,997.4
2023-04-03T08:15:11.142Z,997.4
2023-04-03T08:17:37.192Z,997.4
2023-04-03T08:20:03.333Z,997.4
2023-04-03T08:22:29.393Z,997.3
2023-04-03T08:24:55.434Z,997.3
2023-04-03T08:27:21.628Z,997.4
2023-04-03T08:29:47.510Z,997.5
2023-04-03T08:32:12.665Z,997.5
2023-04-03T08:34:38.883Z,997.4
2023-04-03T08:37:04.832Z,997.4
2023-04-03T08:39:31.144Z,997.4
2023-04-03T08:41:57.175Z,997.5
2023-04-03T08:44:23.341Z,997.4
2023-04-03T08:46:49.444Z,997.4
2023-04-03T08:49:15.320Z,997.4
2023-04-03T08:51:41.527Z,997.4
2023-04-03T08:54:07.719Z,997.4
2023-04-03T08:56:33.605Z,997.4
2023-04-03T08:58:59.822Z,997.5
2023-04-03T09:01:25.964Z,997.5
2023-04-03T09:03:51.081Z,997.5
2023-04-03T09:06:17.200Z,997.5
2023-04-03T09:08:43.101Z,997.4
2023-04-03T09:11:09.396Z,997.5
2023-04-03T09:13:35.403Z,997.5
2023-04-03T09:16:01.560Z,997.5
2023-04-03T09:18:27.484Z,997.5
2023-04-03T09:20:53.742Z,997.5
2023-04-03T09:23:19.860Z,997.5
2023-04-03T09:25:45.895Z,997.4
2023-04-03T09:28:12.047Z,997.5
2023-04-03T09:30:37.963Z,997.5
2023-04-03T09:33:04.229Z,997.5
2023-04-03T09:35:29.346Z,997.5
2023-04-03T09:37:55.343Z,997.5
2023-04-03T09:40:21.359Z,997.5
2023-04-03T09:42:47.625Z,997.5
2023-04-03T09:45:13.617Z,997.5
2023-04-03T09:47:39.733Z,997.5
2023-04-03T09:50:05.754Z,997.4
2023-04-03T09:52:32.019Z,997.3
2023-04-03T09:54:58.125Z,997.5
2023-04-03T09:57:24.229Z,997.5
2023-04-03T09:59:50.129Z,997.5
2023-04-03T10:02:16.398Z,997.4
2023-04-03T10:04:42.513Z,997.4
2023-04-03T10:07:07.617Z,997.4
2023-04-03T10:09:33.744Z,997.4
2023-04-03T10:11:59.813Z,997.5
2023-04-03T10:14:25.917Z,997.4
2023-04-03T10:16:52.002Z,997.3
2023-04-03T10:19:18.073Z,997.3
2023-04-03T10:21:44.204Z,997.3
2023-04-03T10:24:10.191Z,997.3
2023-04-03T10:26:36.357Z,997.4
2023-04-03T10:29:02.362Z,997.3
2023-04-03T10:31:28.651Z,997.4
2023-04-03T10:33:54.635Z,997.3
2023-04-03T10:36:20.760Z,997.3
2023-04-03T10:38:45.904Z,997.3
2023-04-03T10:41:17.217Z,997.2
2023-04-03T10:43:38.096Z,997.4
2023-04-03T10:46:04.101Z,997.3
2023-04-03T10:48:30.233Z,997.3
2023-04-03T10:50:56.379Z,997.4
2023-04-03T10:53:22.443Z,997.2
2023-04-03T10:55:48.444Z,997.3
2023-04-03T10:58:14.553Z,997.2
2023-04-03T11:00:40.822Z,997.3
2023-04-03T11:03:06.849Z,997.2
2023-04-03T11:05:32.740Z,997.3
2023-04-03T11:07:59.044Z,997.2
2023-04-03T11:10:24.147Z,997.2
2023-04-03T11:12:50.049Z,997.2
2023-04-03T11:15:16.308Z,997.1
2023-04-03T11:17:42.437Z,997.1
2023-04-03T11:20:08.472Z,997.2
2023-04-03T11:22:34.598Z,997.2
2023-04-03T11:25:00.775Z,997.1
2023-04-03T11:27:26.804Z,997.2
2023-04-03T11:29:52.842Z,997.1
2023-04-03T11:32:18.986Z,997.1
2023-04-03T11:34:45.143Z,997.1
2023-04-03T11:37:11.159Z,997.2
2023-04-03T11:39:37.274Z,997.1
2023-04-03T11:42:02.409Z,997
2023-04-03T11:44:28.553Z,997.1
2023-04-03T11:46:54.584Z,997.1
2023-04-03T11:49:20.712Z,997.1
2023-04-03T11:51:46.771Z,997.1
2023-04-03T11:56:38.876Z,997
2023-04-03T11:59:05.114Z,997
2023-04-03T12:01:31.151Z,997
2023-04-03T12:03:57.229Z,997
2023-04-03T12:06:23.290Z,997
2023-04-03T12:08:49.510Z,997
2023-04-03T12:11:15.634Z,996.9
2023-04-03T12:13:40.640Z,997
2023-04-03T12:16:06.745Z,996.9
2023-04-03T12:18:32.835Z,996.9
2023-04-03T12:20:58.824Z,996.8
2023-04-03T12:23:25.120Z,996.9
2023-04-03T12:25:51.208Z,996.9
2023-04-03T12:28:17.140Z,996.8
2023-04-03T12:30:43.289Z,996.8
2023-04-03T12:33:09.389Z,996.8
2023-04-03T12:35:35.328Z,996.7
2023-04-03T12:38:01.583Z,996.8
2023-04-03T12:40:27.651Z,996.8
2023-04-03T12:42:53.863Z,996.8
2023-04-03T12:45:18.849Z,996.7
2023-04-03T12:47:44.929Z,996.8
2023-04-03T12:50:11.056Z,996.7
2023-04-03T12:52:37.196Z,996.7
2023-04-03T12:55:03.259Z,996.7
2023-04-03T12:57:29.391Z,996.7
2023-04-03T12:59:55.312Z,996.7
2023-04-03T13:02:21.535Z,996.6
2023-04-03T13:04:47.623Z,996.7
2023-04-03T13:07:13.757Z,996.6
2023-04-03T13:09:39.866Z,996.6
2023-04-03T13:12:06.177Z,996.6
2023-04-03T13:14:32.092Z,996.5
2023-04-03T13:16:57.101Z,996.6
2023-04-03T13:19:23.339Z,996.5
2023-04-03T13:21:49.185Z,996.4
2023-04-03T13:24:15.544Z,996.5
2023-04-03T13:26:41.393Z,996.5
2023-04-03T13:29:07.646Z,996.5
2023-04-03T13:31:33.676Z,996.6
2023-04-03T13:33:59.659Z,996.5
2023-04-03T13:36:25.945Z,996.5
2023-04-03T13:38:52.055Z,996.6
2023-04-03T13:41:17.940Z,996.6
2023-04-03T13:43:44.235Z,996.5
2023-04-03T13:46:10.304Z,996.6
2023-04-03T13:48:35.500Z,996.5
2023-04-03T13:51:01.409Z,996.5
2023-04-03T13:53:27.646Z,996.5
2023-04-03T13:55:53.617Z,996.4
2023-04-03T13:58:19.846Z,996.4
2023-04-03T14:00:45.763Z,996.4
2023-04-03T14:03:12.054Z,996.4
2023-04-03T14:05:37.952Z,996.4
2023-04-03T14:08:04.266Z,996.4
2023-04-03T14:10:30.303Z,996.4
2023-04-03T14:12:56.377Z,996.4
2023-04-03T14:15:22.312Z,996.5
2023-04-03T14:17:48.586Z,996.4
2023-04-03T14:20:13.694Z,996.4
2023-04-03T14:22:39.777Z,996.5
2023-04-03T14:25:05.852Z,996.4
2023-04-03T14:27:31.931Z,996.4
2023-04-03T14:29:58.062Z,996.4
2023-04-03T14:32:24.126Z,996.3
2023-04-03T14:34:50.232Z,996.4
2023-04-03T14:37:16.281Z,996.4
2023-04-03T14:39:42.424Z,996.4
2023-04-03T14:42:08.437Z,996.4
2023-04-03T14:44:34.552Z,996.4
2023-04-03T14:47:00.552Z,996.4
2023-04-03T14:49:26.809Z,996.4
2023-04-03T14:51:51.934Z,996.4
2023-04-03T14:54:18.001Z,996.4
2023-04-03T14:56:44.133Z,996.3
2023-04-03T14:59:10.218Z,996.3
2023-04-03T15:01:36.137Z,996.3
2023-04-03T15:04:02.245Z,996.3
2023-04-03T15:06:28.449Z,996.3
2023-04-03T15:08:54.633Z,996.3
2023-04-03T15:11:20.663Z,996.3
2023-04-03T15:13:46.831Z,996.3
2023-04-03T15:18:38.803Z,996.3
2023-04-03T15:21:04.905Z,996.2
2023-04-03T15:23:30.170Z,996.2
2023-04-03T15:25:56.279Z,996.3
2023-04-03T15:28:22.434Z,996.2
2023-04-03T15:30:48.481Z,996.2
2023-04-03T15:33:14.409Z,996.2
2023-04-03T15:35:40.625Z,996.3
2023-04-03T15:38:06.788Z,996.2
2023-04-03T15:42:58.982Z,996.3
2023-04-03T15:45:25.134Z,996.3
2023-04-03T15:47:51.197Z,996.3
2023-04-03T15:50:17.237Z,996.2
2023-04-03T15:52:43.338Z,996.2
2023-04-03T15:55:08.273Z,996.2
2023-04-03T15:57:34.379Z,996.2
2023-04-03T16:00:00.637Z,996.1
2023-04-03T16:02:26.749Z,996.2
2023-04-03T16:04:52.781Z,996.1
2023-04-03T16:07:18.766Z,996.2
2023-04-03T16:09:45.036Z,996.2
2023-04-03T16:12:10.955Z,996.2
2023-04-03T16:14:37.282Z,996.2
2023-04-03T16:17:03.145Z,996.1
2023-04-03T16:19:29.411Z,996.2
2023-04-03T16:21:55.339Z,996.3
2023-04-03T16:24:21.418Z,996.2
2023-04-03T16:26:46.768Z,996.2
2023-04-03T16:29:12.899Z,996.3
2023-04-03T16:31:38.724Z,996.3
2023-04-03T16:34:04.974Z,996.2
2023-04-03T16:36:31.120Z,996.2
2023-04-03T16:38:57.180Z,996.3
2023-04-03T16:41:22.297Z,996.3
2023-04-03T16:43:48.451Z,996.2
2023-04-03T16:46:14.503Z,996.3
2023-04-03T16:48:40.629Z,996.2
2023-04-03T16:51:06.640Z,996.2
2023-04-03T16:53:32.799Z,996.2
2023-04-03T16:55:58.916Z,996.2
2023-04-03T16:58:24.986Z,996.3
2023-04-03T17:00:51.099Z,996.3
2023-04-03T17:03:17.054Z,996.2
2023-04-03T17:05:43.302Z,996.3
2023-04-03T17:08:09.354Z,996.3
2023-04-03T17:10:35.425Z,996.3
2023-04-03T17:13:01.509Z,996.3
2023-04-03T17:15:27.721Z,996.2
2023-04-03T17:17:53.785Z,996.3
2023-04-03T17:20:19.918Z,996.3
2023-04-03T17:22:44.858Z,996.2
2023-04-03T17:25:11.070Z,996.2
2023-04-03T17:27:37.024Z,996.2
2023-04-03T17:30:03.137Z,996.3
2023-04-03T17:32:29.433Z,996.3
2023-04-03T17:34:55.501Z,996.2
2023-04-03T17:37:21.569Z,996.2
2023-04-03T17:39:47.674Z,996.2
2023-04-03T17:42:13.601Z,996.3
2023-04-03T17:44:39.850Z,996.2
2023-04-03T17:47:05.921Z,996.2
2023-04-03T17:49:32.149Z,996.2
2023-04-03T17:51:58.025Z,996.2
2023-04-03T17:54:23.046Z,996.3
2023-04-03T17:56:49.125Z,996.3
2023-04-03T17:59:15.239Z,996.2
2023-04-03T18:01:41.456Z,996.3
2023-04-03T18:04:07.552Z,996.3
2023-04-03T18:06:33.668Z,996.3
2023-04-03T18:08:59.718Z,996.3
2023-04-03T18:11:25.739Z,996.3
2023-04-03T18:13:51.809Z,996.4
2023-04-03T18:16:18.096Z,996.4
2023-04-03T18:18:44.392Z,996.4
2023-04-03T18:21:10.795Z,996.4
2023-04-03T18:23:36.372Z,996.4
2023-04-03T18:26:01.534Z,996.4
2023-04-03T18:28:27.605Z,996.4
2023-04-03T18:30:53.751Z,996.4
2023-04-03T18:33:19.788Z,996.4
2023-04-03T18:35:45.880Z,996.4
2023-04-03T18:38:11.972Z,996.4
2023-04-03T18:40:38.069Z,996.5
2023-04-03T18:43:04.161Z,996.5
2023-04-03T18:45:30.563Z,996.5
2023-04-03T18:47:56.402Z,996.5
2023-04-03T18:50:22.528Z,996.6
2023-04-03T18:52:48.593Z,996.6
2023-04-03T18:55:14.587Z,996.6
2023-04-03T18:57:40.883Z,996.6
2023-04-03T19:00:06.673Z,996.6
2023-04-03T19:02:33.091Z,996.6
2023-04-03T19:04:58.845Z,996.6
2023-04-03T19:07:25.154Z,996.6
2023-04-03T19:09:51.079Z,996.6
2023-04-03T19:12:17.352Z,996.6
2023-04-03T19:14:43.397Z,996.6
2023-04-03T19:17:09.465Z,996.6
2023-04-03T19:19:34.601Z,996.7
2023-04-03T19:22:00.708Z,996.7
2023-04-03T19:24:26.785Z,996.7
2023-04-03T19:26:52.748Z,996.7
2023-04-03T19:29:19.070Z,996.7
2023-04-03T19:31:44.940Z,996.8
2023-04-03T19:34:11.245Z,996.8
2023-04-03T19:36:37.280Z,996.7
2023-04-03T19:39:03.356Z,996.7
2023-04-03T19:41:29.509Z,996.8
2023-04-03T19:43:55.582Z,996.8
2023-04-03T19:46:21.479Z,996.8
2023-04-03T19:48:47.786Z,996.8
2023-04-03T19:51:13.874Z,996.8
2023-04-03T19:53:39.900Z,996.8
2023-04-03T19:56:04.933Z,996.7
2023-04-03T19:58:31.061Z,996.8
2023-04-03T20:00:57.064Z,996.7
2023-04-03T20:03:23.210Z,996.8
2023-04-03T20:05:49.428Z,996.8
2023-04-03T20:08:15.520Z,996.7
2023-04-03T20:10:41.587Z,996.8
2023-04-03T20:13:07.837Z,996.8
2023-04-03T20:15:33.644Z,996.8
2023-04-03T20:17:59.949Z,996.8
2023-04-03T20:20:25.830Z,996.8
2023-04-03T20:22:52.153Z,996.8
2023-04-03T20:25:18.166Z,996.8
2023-04-03T20:27:43.185Z,996.8
2023-04-03T20:30:09.299Z,996.8
2023-04-03T20:32:35.365Z,996.8
2023-04-03T20:35:01.595Z,996.8
2023-04-03T20:37:27.692Z,996.8
2023-04-03T20:39:53.808Z,996.8
2023-04-03T20:42:19.712Z,996.8
2023-04-03T20:44:45.978Z,996.8
2023-04-03T20:47:11.902Z,996.8
2023-04-03T20:49:37.993Z,996.8
2023-04-03T20:52:04.084Z,996.8
2023-04-03T20:54:30.186Z,996.8
2023-04-03T20:56:56.499Z,996.8
2023-04-03T20:59:21.562Z,996.8
2023-04-03T21:01:47.656Z,996.8
2023-04-03T21:04:13.745Z,996.8
2023-04-03T21:06:39.696Z,996.8
2023-04-03T21:09:05.770Z,996.8
2023-04-03T21:11:32.035Z,996.8
2023-04-03T21:13:58.049Z,996.9
2023-04-03T21:16:24.181Z,996.8
2023-04-03T21:18:50.290Z,996.8
2023-04-03T21:21:16.428Z,996.9
2023-04-03T21:23:42.386Z,996.8
2023-04-03T21:26:08.623Z,996.9
2023-04-03T21:28:34.680Z,996.9
2023-04-03T21:30:59.786Z,996.8
2023-04-03T21:33:25.995Z,996.8
2023-04-03T21:35:51.974Z,996.7
2023-04-03T21:38:18.098Z,996.8
2023-04-03T21:40:44.050Z,996.8
2023-04-03T21:43:10.296Z,996.8
2023-04-03T21:45:36.448Z,996.8
2023-04-03T21:48:02.551Z,996.9
2023-04-03T21:50:28.660Z,996.9
2023-04-03T21:52:54.518Z,996.8
2023-04-03T21:55:20.715Z,996.8
2023-04-03T21:57:46.889Z,996.8
2023-04-03T22:00:12.806Z,996.8
2023-04-03T22:02:38.140Z,996.8
2023-04-03T22:05:04.034Z,996.8
2023-04-03T22:07:30.253Z,996.9
2023-04-03T22:09:56.380Z,996.8
2023-04-03T22:12:22.475Z,996.9
2023-04-03T22:14:48.421Z,996.9
2023-04-03T22:17:14.646Z,996.9
2023-04-03T22:19:40.799Z,996.9
2023-04-03T22:22:06.893Z,996.9
2023-04-03T22:24:32.876Z,996.9
2023-04-03T22:26:59.063Z,996.9
2023-04-03T22:29:25.003Z,996.9
2023-04-03T22:31:51.237Z,996.9
2023-04-03T22:34:16.341Z,996.9
2023-04-03T22:36:42.357Z,996.9
2023-04-03T22:39:08.520Z,996.9
2023-04-03T22:41:34.587Z,996.9
2023-04-03T22:44:00.738Z,996.9
2023-04-03T22:46:26.706Z,996.9
2023-04-03T22:48:52.900Z,996.9
2023-04-03T22:51:19.094Z,996.9
2023-04-03T22:53:44.959Z,996.9
2023-04-03T22:56:11.184Z,996.9
2023-04-03T22:58:37.306Z,996.9
2023-04-03T23:01:03.382Z,997
2023-04-03T23:03:29.522Z,997
2023-04-03T23:05:54.517Z,997
2023-04-03T23:08:20.589Z,997
2023-04-03T23:10:46.824Z,997
2023-04-03T23:13:12.755Z,997
2023-04-03T23:15:39.022Z,997
2023-04-03T23:18:05.115Z,996.9
2023-04-03T23:20:31.231Z,996.9
2023-04-03T23:22:57.326Z,996.9
2023-04-03T23:25:23.328Z,997
2023-04-03T23:27:49.483Z,997.1
2023-04-03T23:30:15.542Z,997
2023-04-03T23:32:41.688Z,997.1
2023-04-03T23:35:07.785Z,997
2023-04-03T23:37:32.743Z,997.1
2023-04-03T23:39:58.999Z,997
2023-04-03T23:42:25.084Z,997
2023-04-03T23:44:51.156Z,997
2023-04-03T23:47:17.290Z,997.1
2023-04-03T23:49:43.403Z,997
2023-04-03T23:52:09.478Z,997
2023-04-03T23:54:35.571Z,997
2023-04-03T23:57:01.666Z,996.9
2023-04-03T23:59:27.631Z,996.9
